Tring-Jonction, Canada
Current Conditions -  °F | °C
As of 11:00 AM on Wednesday 26 Nov 2014 (Local Time) from CYQB Reporting Station
Overcast Overcast  
Wind Chill: 30°   Ceiling: 18000
Heat Index: 34°   Visibility: 25mi
Dew Point: 19°   Wind: 5mph
Humidity: 56%   Direction: 340°NNW
Pressure: 30.23"   Gusts: NA
Location:  46.27°N, 71°W
Report Text: CYQB 261600Z 34004KT 25SM FEW038 OVC180 01/M07 A3023 RMK SC2AC6 PRESFR SLP239
Loading
Personal Weather Stations






























Interactive Weather Map New forecast layout! Learn more

10-Day Weather Forecast

Advertisements
Track Severe Weather on mobile